Terminal Aerodrome Forecast
Issued by NWS

Current Version | Previous Version | Text Only | Print | Product List | Glossary On
Versions: 1 2 3 4 5 6 7 8 9 10 11 12 13 14 15
446
FTUS43 KTOP 031123
TAFMHK
TAF
KMHK 031123Z 0312/0412 06004KT P6SM OVC120
     FM031500 08005KT P6SM VCSH OVC050
     FM032300 09004KT 6SM -SHRA BR OVC030
     FM040400 00000KT 2SM -SHRA BR OVC010
     FM040700 VRB03KT 1 1/2SM -SHRA BR OVC008
     FM040900 VRB03KT 3SM BR BKN008=

USA.gov is the U.S. government's official web portal to all federal, state and local government web resources and services.